createdAt,value
2018-10-18T00:02:11.302Z,44.83
2018-10-18T00:04:38.144Z,44.57
2018-10-18T00:07:05.460Z,43.97
2018-10-18T00:09:32.392Z,44.90
2018-10-18T00:11:59.333Z,45.10
2018-10-18T00:14:26.324Z,43.90
2018-10-18T00:16:53.236Z,43.70
2018-10-18T00:19:20.202Z,40.63
2018-10-18T00:21:47.126Z,44.73
2018-10-18T00:24:14.060Z,55.03
2018-10-18T00:26:40.966Z,57.40
2018-10-18T00:29:07.889Z,62.43
2018-10-18T00:31:34.805Z,52.83
2018-10-18T00:34:01.747Z,58.30
2018-10-18T00:36:28.672Z,47.53
2018-10-18T00:38:55.612Z,50.87
2018-10-18T00:41:22.623Z,45.67
2018-10-18T00:43:49.557Z,45.90
2018-10-18T00:46:16.457Z,60.77
2018-10-18T00:48:43.373Z,66.37
2018-10-18T00:51:10.268Z,58.17
2018-10-18T00:53:37.206Z,65.13
2018-10-18T00:56:04.256Z,66.03
2018-10-18T00:58:31.144Z,76.27
2018-10-18T01:00:58.079Z,77.47
2018-10-18T01:03:24.993Z,62.87
2018-10-18T01:05:51.961Z,68.87
2018-10-18T01:08:18.905Z,60.50
2018-10-18T01:10:45.824Z,76.73
2018-10-18T01:13:12.738Z,62.00
2018-10-18T01:15:39.669Z,60.03
2018-10-18T01:18:06.872Z,69.07
2018-10-18T01:20:33.749Z,61.03
2018-10-18T01:23:00.694Z,68.13
2018-10-18T01:25:27.625Z,68.60
2018-10-18T01:27:54.616Z,63.47
2018-10-18T01:30:21.577Z,76.00
2018-10-18T01:32:48.484Z,67.57
2018-10-18T01:35:15.397Z,68.40
2018-10-18T01:37:42.360Z,56.30
2018-10-18T01:40:09.293Z,61.37
2018-10-18T01:42:36.218Z,62.80
2018-10-18T01:45:03.350Z,57.37
2018-10-18T01:47:30.301Z,67.57
2018-10-18T01:49:57.281Z,61.67
2018-10-18T01:52:24.213Z,59.47
2018-10-18T01:54:51.151Z,61.33
2018-10-18T01:57:18.093Z,52.17
2018-10-18T01:59:45.055Z,58.83
2018-10-18T02:02:12.059Z,49.90
2018-10-18T02:04:39.003Z,54.30
2018-10-18T02:07:05.803Z,56.83
2018-10-18T02:09:32.729Z,50.13
2018-10-18T02:11:59.741Z,51.07
2018-10-18T02:14:26.628Z,63.20
2018-10-18T02:16:53.572Z,52.63
2018-10-18T02:19:20.547Z,39.87
2018-10-18T02:21:47.471Z,73.20
2018-10-18T02:24:14.461Z,63.17
2018-10-18T02:26:41.365Z,56.70
2018-10-18T02:29:08.311Z,57.13
2018-10-18T02:31:35.349Z,45.30
2018-10-18T02:34:02.310Z,40.13
2018-10-18T02:36:29.246Z,65.50
2018-10-18T02:38:56.156Z,53.23
2018-10-18T02:41:23.074Z,61.63
2018-10-18T02:43:49.972Z,43.83
2018-10-18T02:46:16.900Z,46.13
2018-10-18T02:48:43.858Z,62.07
2018-10-18T02:51:10.773Z,47.90
2018-10-18T02:53:37.690Z,46.83
2018-10-18T02:56:04.633Z,61.23
2018-10-18T02:58:31.518Z,50.90
2018-10-18T03:00:58.436Z,56.97
2018-10-18T03:03:25.341Z,49.60
2018-10-18T03:05:52.327Z,39.20
2018-10-18T03:08:19.177Z,43.23
2018-10-18T03:10:46.097Z,46.10
2018-10-18T03:13:13.013Z,42.00
2018-10-18T03:15:39.937Z,41.33
2018-10-18T03:18:07.167Z,43.83
2018-10-18T03:20:34.055Z,41.50
2018-10-18T03:23:01.001Z,42.80
2018-10-18T03:25:27.917Z,41.43
2018-10-18T03:27:54.866Z,41.03
2018-10-18T03:30:21.784Z,40.87
2018-10-18T03:32:48.728Z,39.77
2018-10-18T03:35:15.667Z,37.63
2018-10-18T03:37:42.649Z,33.63
2018-10-18T03:40:09.948Z,36.67
2018-10-18T03:42:36.907Z,33.90
2018-10-18T03:45:04.845Z,32.37
2018-10-18T03:47:31.802Z,34.60
2018-10-18T03:49:58.737Z,33.23
2018-10-18T03:52:25.685Z,33.90
2018-10-18T03:54:52.625Z,34.97
2018-10-18T03:57:19.598Z,34.17
2018-10-18T03:59:46.648Z,33.57
2018-10-18T04:02:13.567Z,37.60
2018-10-18T04:04:41.086Z,35.70
2018-10-18T04:07:08.758Z,39.10
2018-10-18T04:09:35.718Z,35.40
2018-10-18T04:12:02.702Z,40.60
2018-10-18T04:14:29.614Z,38.20
2018-10-18T04:16:56.571Z,37.40
2018-10-18T04:19:23.492Z,38.90
2018-10-18T04:21:50.433Z,46.77
2018-10-18T04:24:17.471Z,43.33
2018-10-18T04:26:44.382Z,41.60
2018-10-18T04:29:11.360Z,39.90
2018-10-18T04:31:38.307Z,40.47
2018-10-18T04:34:05.257Z,38.50
2018-10-18T04:36:32.195Z,39.20
2018-10-18T04:38:59.131Z,48.90
2018-10-18T04:41:26.091Z,46.40
2018-10-18T04:43:53.042Z,36.13
2018-10-18T04:46:19.988Z,38.10
2018-10-18T04:48:47.033Z,40.47
2018-10-18T04:51:13.931Z,41.93
2018-10-18T04:53:40.845Z,43.57
2018-10-18T04:56:07.780Z,35.80
2018-10-18T04:58:34.726Z,43.07
2018-10-18T05:01:01.760Z,40.00
2018-10-18T05:03:28.637Z,43.10
2018-10-18T05:05:58.061Z,59.27
2018-10-18T05:08:25.808Z,50.20
2018-10-18T05:10:52.826Z,44.60
2018-10-18T05:13:19.962Z,50.47
2018-10-18T05:15:46.765Z,51.77
2018-10-18T05:18:13.812Z,48.07
2018-10-18T05:20:40.758Z,43.47
2018-10-18T05:23:08.307Z,51.43
2018-10-18T05:25:35.330Z,43.77
2018-10-18T05:28:02.817Z,46.63
2018-10-18T05:30:29.966Z,41.40
2018-10-18T05:32:56.933Z,49.20
2018-10-18T05:35:23.910Z,48.00
2018-10-18T05:37:50.972Z,51.83
2018-10-18T05:40:17.958Z,47.00
2018-10-18T05:42:44.933Z,49.70
2018-10-18T05:45:11.886Z,50.67
2018-10-18T05:47:38.841Z,47.27
2018-10-18T05:50:06.045Z,48.37
2018-10-18T05:52:33.003Z,43.97
2018-10-18T05:54:59.985Z,42.67
2018-10-18T05:57:26.902Z,49.07
2018-10-18T05:59:53.832Z,41.13
2018-10-18T06:02:20.780Z,39.03
2018-10-18T06:04:47.711Z,41.23
2018-10-18T06:07:14.766Z,38.83
2018-10-18T06:09:41.623Z,37.97
2018-10-18T06:12:08.590Z,38.07
2018-10-18T06:14:35.528Z,34.70
2018-10-18T06:17:02.482Z,36.30
2018-10-18T06:19:29.422Z,32.10
2018-10-18T06:21:56.357Z,34.57
2018-10-18T06:24:23.379Z,35.30
2018-10-18T06:26:50.313Z,34.07
2018-10-18T06:29:17.347Z,33.27
2018-10-18T06:31:44.236Z,32.77
2018-10-18T06:34:11.169Z,34.77
2018-10-18T06:36:38.145Z,36.17
2018-10-18T06:39:06.903Z,32.73
2018-10-18T06:41:33.851Z,35.67
2018-10-18T06:44:00.815Z,32.70
2018-10-18T06:46:28.005Z,35.07
2018-10-18T06:48:55.016Z,34.33
2018-10-18T06:51:21.939Z,33.73
2018-10-18T06:53:48.882Z,36.50
2018-10-18T06:56:15.826Z,34.73
2018-10-18T06:58:42.773Z,34.03
2018-10-18T07:01:09.733Z,35.90
2018-10-18T07:03:36.666Z,34.90
2018-10-18T07:06:04.160Z,32.70
2018-10-18T07:08:31.110Z,34.33
2018-10-18T07:10:58.144Z,33.93
2018-10-18T07:13:25.038Z,34.40
2018-10-18T07:15:51.969Z,34.27
2018-10-18T07:18:18.977Z,35.03
2018-10-18T07:20:45.913Z,34.27
2018-10-18T07:23:12.883Z,35.73
2018-10-18T07:25:39.833Z,34.90
2018-10-18T07:28:06.791Z,37.07
2018-10-18T07:30:33.726Z,35.30
2018-10-18T07:33:00.680Z,37.17
2018-10-18T07:35:27.636Z,34.50
2018-10-18T07:37:54.598Z,34.47
2018-10-18T07:40:21.541Z,33.87
2018-10-18T07:42:48.490Z,34.77
2018-10-18T07:45:15.454Z,33.57
2018-10-18T07:47:43.098Z,35.50
2018-10-18T07:50:10.434Z,36.10
2018-10-18T07:52:37.388Z,34.73
2018-10-18T07:55:05.227Z,36.53
2018-10-18T07:57:32.243Z,36.00
2018-10-18T07:59:59.235Z,36.53
2018-10-18T08:02:26.133Z,37.97
2018-10-18T08:04:53.071Z,37.47
2018-10-18T08:07:20.026Z,40.67
2018-10-18T08:09:46.980Z,40.47
2018-10-18T08:12:13.954Z,39.73
2018-10-18T08:14:40.933Z,42.53
2018-10-18T08:17:07.886Z,44.97
2018-10-18T08:19:34.853Z,42.20
2018-10-18T08:22:01.798Z,43.23
2018-10-18T08:24:28.754Z,41.07
2018-10-18T08:26:55.702Z,44.07
2018-10-18T08:29:22.657Z,43.50
2018-10-18T08:31:49.629Z,37.70
2018-10-18T08:34:16.560Z,37.50
2018-10-18T08:36:43.490Z,35.57
2018-10-18T08:39:11.333Z,38.87
2018-10-18T08:41:38.265Z,34.67
2018-10-18T08:44:05.251Z,30.13
2018-10-18T08:46:32.174Z,32.03
2018-10-18T08:48:59.188Z,31.60
2018-10-18T08:51:26.096Z,32.13
2018-10-18T08:53:53.026Z,27.67
2018-10-18T08:56:20.025Z,29.83
2018-10-18T08:58:46.945Z,25.80
2018-10-18T09:01:13.946Z,25.23
2018-10-18T09:03:40.878Z,23.50
2018-10-18T09:06:07.845Z,13.90
2018-10-18T09:08:34.784Z,9.23
2018-10-18T09:11:01.763Z,5.03
2018-10-18T09:13:28.691Z,4.90
2018-10-18T09:15:55.713Z,4.13
2018-10-18T09:18:22.581Z,4.20
2018-10-18T09:20:49.558Z,3.97
2018-10-18T09:23:16.514Z,4.33
2018-10-18T09:25:43.518Z,4.40
2018-10-18T09:28:10.469Z,4.13
2018-10-18T09:30:37.414Z,4.50
2018-10-18T09:33:04.369Z,4.70
2018-10-18T09:35:31.316Z,5.27
2018-10-18T09:37:58.266Z,6.00
2018-10-18T09:40:25.213Z,6.33
2018-10-18T09:42:52.202Z,5.20
2018-10-18T09:45:19.134Z,5.23
2018-10-18T09:47:46.110Z,5.77
2018-10-18T09:50:13.066Z,5.60
2018-10-18T09:52:40.071Z,5.60
2018-10-18T09:55:08.644Z,5.90
2018-10-18T09:57:35.580Z,6.03
2018-10-18T10:00:02.915Z,5.77
2018-10-18T10:02:36.562Z,5.97
2018-10-18T10:05:03.752Z,5.60
2018-10-18T10:07:30.692Z,6.10
2018-10-18T10:09:57.633Z,5.10
2018-10-18T10:12:24.578Z,5.90
2018-10-18T10:14:51.501Z,5.17
2018-10-18T10:17:18.451Z,4.53
2018-10-18T10:19:45.397Z,4.83
2018-10-18T10:22:12.341Z,3.87
2018-10-18T10:24:39.383Z,3.70
2018-10-18T10:27:06.326Z,3.73
2018-10-18T10:29:33.251Z,3.60
2018-10-18T10:32:00.183Z,3.90
2018-10-18T10:34:27.130Z,4.20
2018-10-18T10:36:54.207Z,3.43
2018-10-18T10:39:22.022Z,2.60
2018-10-18T10:41:48.986Z,3.00
2018-10-18T10:44:16.000Z,3.37
2018-10-18T10:46:42.894Z,3.53
2018-10-18T10:49:09.955Z,2.90
2018-10-18T10:51:37.105Z,2.73
2018-10-18T10:54:05.162Z,3.23
2018-10-18T10:56:32.105Z,2.90
2018-10-18T10:58:59.322Z,3.30
2018-10-18T11:01:27.042Z,2.80
2018-10-18T11:03:55.222Z,2.70
2018-10-18T11:06:22.450Z,2.50
2018-10-18T11:08:49.403Z,2.33
2018-10-18T11:11:16.869Z,2.87
2018-10-18T11:13:43.894Z,3.00
2018-10-18T11:16:10.837Z,3.80
2018-10-18T11:18:38.432Z,2.10
2018-10-18T11:21:06.553Z,2.80
2018-10-18T11:23:33.993Z,2.17
2018-10-18T11:26:00.993Z,2.77
2018-10-18T11:28:27.945Z,2.27
2018-10-18T11:30:54.888Z,2.47
2018-10-18T11:33:21.796Z,2.70
2018-10-18T11:35:48.712Z,2.27
2018-10-18T11:38:15.769Z,2.03
2018-10-18T11:40:42.977Z,2.10
2018-10-18T11:43:10.320Z,1.70
2018-10-18T11:45:37.320Z,2.07
2018-10-18T11:48:04.740Z,2.00
2018-10-18T11:50:31.616Z,2.23
2018-10-18T11:52:58.828Z,1.97
2018-10-18T11:55:25.880Z,2.07
2018-10-18T11:57:52.773Z,2.03
2018-10-18T12:00:19.704Z,1.93
2018-10-18T12:02:47.919Z,1.83
2018-10-18T12:05:14.936Z,1.90
2018-10-18T12:07:41.854Z,2.10
2018-10-18T12:10:09.691Z,2.07
2018-10-18T12:12:36.600Z,2.07
2018-10-18T12:15:04.061Z,2.40
2018-10-18T12:17:30.954Z,1.93
2018-10-18T12:19:57.863Z,2.03
2018-10-18T12:22:24.753Z,2.10
2018-10-18T12:24:51.668Z,2.00
2018-10-18T12:27:18.572Z,2.03
2018-10-18T12:29:45.462Z,1.90
2018-10-18T12:32:12.411Z,1.80
2018-10-18T12:34:39.273Z,1.87
2018-10-18T12:37:06.181Z,2.00
2018-10-18T12:39:33.130Z,1.90
2018-10-18T12:42:00.060Z,2.00
2018-10-18T12:44:31.567Z,1.60
2018-10-18T12:46:58.504Z,1.37
2018-10-18T12:49:25.412Z,2.50
2018-10-18T12:51:52.321Z,1.70
2018-10-18T12:54:19.373Z,1.50
2018-10-18T12:56:46.136Z,1.40
2018-10-18T12:59:13.188Z,2.17
2018-10-18T13:01:40.158Z,1.63
2018-10-18T13:04:07.071Z,2.50
2018-10-18T13:06:34.005Z,1.73
2018-10-18T13:09:00.937Z,1.93
2018-10-18T13:11:28.138Z,2.10
2018-10-18T13:13:55.077Z,1.70
2018-10-18T13:16:21.984Z,2.00
2018-10-18T13:18:48.924Z,2.70
2018-10-18T13:21:15.833Z,2.03
2018-10-18T13:23:42.740Z,2.13
2018-10-18T13:26:09.799Z,1.90
2018-10-18T13:28:36.666Z,2.37
2018-10-18T13:31:04.036Z,2.10
2018-10-18T13:33:30.946Z,1.90
2018-10-18T13:35:57.887Z,2.13
2018-10-18T13:38:24.789Z,1.77
2018-10-18T13:40:51.849Z,1.87
2018-10-18T13:43:19.406Z,1.53
2018-10-18T13:45:46.416Z,1.70
2018-10-18T13:48:13.427Z,1.70
2018-10-18T13:50:40.252Z,1.73
2018-10-18T13:53:07.245Z,1.73
2018-10-18T13:55:34.480Z,1.70
2018-10-18T13:58:01.439Z,1.90
2018-10-18T14:00:29.360Z,1.50
2018-10-18T14:02:56.354Z,1.50
2018-10-18T14:05:23.738Z,1.53
2018-10-18T14:07:51.651Z,1.30
2018-10-18T14:10:18.513Z,2.30
2018-10-18T14:12:45.424Z,1.43
2018-10-18T14:15:12.355Z,1.73
2018-10-18T14:17:39.708Z,2.10
2018-10-18T14:20:06.838Z,1.53
2018-10-18T14:22:34.065Z,2.00
2018-10-18T14:25:00.967Z,1.50
2018-10-18T14:27:28.261Z,2.03
2018-10-18T14:29:55.168Z,1.50
2018-10-18T14:32:22.149Z,1.60
2018-10-18T14:34:49.399Z,1.97
2018-10-18T14:37:16.326Z,2.40
2018-10-18T14:39:43.245Z,1.93
2018-10-18T14:42:10.409Z,1.90
2018-10-18T14:44:37.835Z,2.27
2018-10-18T14:47:04.733Z,2.00
2018-10-18T14:49:31.934Z,2.10
2018-10-18T14:51:58.947Z,2.03
2018-10-18T14:54:25.833Z,2.30
2018-10-18T14:56:52.756Z,1.80
2018-10-18T14:59:19.822Z,2.17
2018-10-18T15:01:46.642Z,2.03
2018-10-18T15:04:13.631Z,2.13
2018-10-18T15:06:40.541Z,2.07
2018-10-18T15:09:07.999Z,1.93
2018-10-18T15:11:34.913Z,1.67
2018-10-18T15:14:02.050Z,2.00
2018-10-18T15:16:28.965Z,1.70
2018-10-18T15:18:55.915Z,2.13
2018-10-18T15:21:22.844Z,1.87
2018-10-18T15:23:49.728Z,2.00
2018-10-18T15:26:16.690Z,1.90
2018-10-18T15:28:43.577Z,2.00
2018-10-18T15:31:10.501Z,1.73
2018-10-18T15:33:37.404Z,1.73
2018-10-18T15:36:04.436Z,2.00
2018-10-18T15:38:31.464Z,1.70
2018-10-18T15:40:58.368Z,1.50
2018-10-18T15:43:25.331Z,1.50
2018-10-18T15:45:52.297Z,1.77
2018-10-18T15:48:19.185Z,2.00
2018-10-18T15:50:46.105Z,2.20
2018-10-18T15:53:13.062Z,2.20
2018-10-18T15:55:39.971Z,2.50
2018-10-18T15:58:06.901Z,5.00
2018-10-18T16:00:33.789Z,3.57
2018-10-18T16:03:00.736Z,3.23
2018-10-18T16:05:27.586Z,4.27
2018-10-18T16:07:54.501Z,3.40
2018-10-18T16:10:21.424Z,4.13
2018-10-18T16:12:48.354Z,3.17
2018-10-18T16:15:15.294Z,3.70
2018-10-18T16:17:42.344Z,3.30
2018-10-18T16:20:09.886Z,3.20
2018-10-18T16:22:37.457Z,2.83
2018-10-18T16:25:05.167Z,2.57
2018-10-18T16:27:32.093Z,3.23
2018-10-18T16:29:59.038Z,2.90
2018-10-18T16:32:26.145Z,2.80
2018-10-18T16:34:53.126Z,2.73
2018-10-18T16:37:20.093Z,5.50
2018-10-18T16:39:47.020Z,6.40
2018-10-18T16:42:13.968Z,8.43
2018-10-18T16:44:40.917Z,8.60
2018-10-18T16:47:07.848Z,5.73
2018-10-18T16:49:34.782Z,6.20
2018-10-18T16:52:01.795Z,4.53
2018-10-18T16:54:28.700Z,4.53
2018-10-18T16:56:55.584Z,4.33
2018-10-18T16:59:22.516Z,3.77
2018-10-18T17:01:49.446Z,3.97
2018-10-18T17:04:16.480Z,3.73
2018-10-18T17:06:43.333Z,3.80
2018-10-18T17:09:10.729Z,4.33
2018-10-18T17:11:37.848Z,4.30
2018-10-18T17:14:04.831Z,4.70
2018-10-18T17:16:31.725Z,4.47
2018-10-18T17:18:58.677Z,4.40
2018-10-18T17:21:25.620Z,4.30
2018-10-18T17:23:52.718Z,4.37
2018-10-18T17:26:19.696Z,4.77
2018-10-18T17:28:46.575Z,4.07
2018-10-18T17:31:13.532Z,5.10
2018-10-18T17:33:40.492Z,4.63
2018-10-18T17:36:07.527Z,5.00
2018-10-18T17:38:34.425Z,4.53
2018-10-18T17:41:01.404Z,4.43
2018-10-18T17:43:28.312Z,4.57
2018-10-18T17:45:55.232Z,4.27
2018-10-18T17:48:22.161Z,4.70
2018-10-18T17:50:49.136Z,4.60
2018-10-18T17:53:16.081Z,5.30
2018-10-18T17:55:43.036Z,4.87
2018-10-18T17:58:10.060Z,5.20
2018-10-18T18:00:36.956Z,5.20
2018-10-18T18:03:03.900Z,6.17
2018-10-18T18:05:30.844Z,5.53
2018-10-18T18:07:57.889Z,6.03
2018-10-18T18:10:24.857Z,5.40
2018-10-18T18:12:51.835Z,5.53
2018-10-18T18:15:19.426Z,5.40
2018-10-18T18:17:46.480Z,5.87
2018-10-18T18:20:13.531Z,5.17
2018-10-18T18:22:40.748Z,5.20
2018-10-18T18:25:09.284Z,5.47
2018-10-18T18:27:36.385Z,5.90
2018-10-18T18:30:05.008Z,5.50
2018-10-18T18:32:32.088Z,5.43
2018-10-18T18:34:59.065Z,5.77
2018-10-18T18:37:26.084Z,6.40
2018-10-18T18:39:53.013Z,6.50
2018-10-18T18:42:20.165Z,6.73
2018-10-18T18:44:47.222Z,7.07
2018-10-18T18:47:14.602Z,6.83
2018-10-18T18:49:41.698Z,7.10
2018-10-18T18:52:09.198Z,7.57
2018-10-18T18:54:36.229Z,8.57
2018-10-18T18:57:03.295Z,8.87
2018-10-18T18:59:30.417Z,10.97
2018-10-18T19:01:58.015Z,10.30
2018-10-18T19:04:24.940Z,11.10
2018-10-18T19:06:52.519Z,12.00
2018-10-18T19:09:19.501Z,12.47
2018-10-18T19:11:46.963Z,12.50
2018-10-18T19:14:14.311Z,12.70
2018-10-18T19:16:41.396Z,11.47
2018-10-18T19:19:08.464Z,11.37
2018-10-18T19:21:35.749Z,10.50
2018-10-18T19:24:03.029Z,12.10
2018-10-18T19:26:30.051Z,10.10
2018-10-18T19:29:03.784Z,10.37
2018-10-18T19:31:30.837Z,10.23
2018-10-18T19:33:57.841Z,8.87
2018-10-18T19:36:25.104Z,8.43
2018-10-18T19:38:52.068Z,8.50
2018-10-18T19:41:19.274Z,7.93
2018-10-18T19:43:46.228Z,7.33
2018-10-18T19:46:13.217Z,7.00
2018-10-18T19:48:40.201Z,6.30
2018-10-18T19:51:07.184Z,5.90
2018-10-18T19:53:34.197Z,5.87
2018-10-18T19:56:01.225Z,5.57
2018-10-18T19:58:28.450Z,5.00
2018-10-18T20:00:55.403Z,5.00
2018-10-18T20:03:22.386Z,4.83
2018-10-18T20:05:49.456Z,4.90
2018-10-18T20:08:16.577Z,5.60
2018-10-18T20:10:43.612Z,5.57
2018-10-18T20:13:10.737Z,4.60
2018-10-18T20:15:37.720Z,5.10
2018-10-18T20:18:04.757Z,5.67
2018-10-18T20:20:31.621Z,4.37
2018-10-18T20:22:58.629Z,26.27
2018-10-18T20:25:25.588Z,8.17
2018-10-18T20:27:52.478Z,8.67
2018-10-18T20:30:19.401Z,5.37
2018-10-18T20:32:46.401Z,6.03
2018-10-18T20:35:13.361Z,5.10
2018-10-18T20:37:40.814Z,4.93
2018-10-18T20:40:10.026Z,4.83
2018-10-18T20:42:36.973Z,4.80
2018-10-18T20:45:04.537Z,4.80
2018-10-18T20:47:31.609Z,4.73
2018-10-18T20:49:58.402Z,4.73
2018-10-18T20:52:25.372Z,5.00
2018-10-18T20:54:52.272Z,4.87
2018-10-18T20:57:19.221Z,5.00
2018-10-18T20:59:46.358Z,5.10
2018-10-18T21:02:13.321Z,4.97
2018-10-18T21:04:40.253Z,5.00
2018-10-18T21:07:07.161Z,5.10
2018-10-18T21:09:34.078Z,5.37
2018-10-18T21:12:01.070Z,4.67
2018-10-18T21:14:27.976Z,5.33
2018-10-18T21:16:54.939Z,5.23
2018-10-18T21:19:21.868Z,5.10
2018-10-18T21:21:48.896Z,4.80
2018-10-18T21:24:15.745Z,5.40
2018-10-18T21:26:42.661Z,4.73
2018-10-18T21:29:09.635Z,4.73
2018-10-18T21:31:36.500Z,5.20
2018-10-18T21:34:03.486Z,4.47
2018-10-18T21:36:30.397Z,4.87
2018-10-18T21:38:57.342Z,4.87
2018-10-18T21:41:24.277Z,4.47
2018-10-18T21:43:51.286Z,5.07
2018-10-18T21:46:18.221Z,4.97
2018-10-18T21:48:45.331Z,4.47
2018-10-18T21:51:12.274Z,4.37
2018-10-18T21:53:39.224Z,4.50
2018-10-18T21:56:06.246Z,4.80
2018-10-18T21:58:33.179Z,4.50
2018-10-18T22:01:00.117Z,4.80
2018-10-18T22:03:27.061Z,4.57
2018-10-18T22:05:53.989Z,4.33
2018-10-18T22:08:20.930Z,4.70
2018-10-18T22:10:47.845Z,4.77
2018-10-18T22:13:14.784Z,4.73
2018-10-18T22:15:41.716Z,4.27
2018-10-18T22:18:08.661Z,4.10
2018-10-18T22:20:35.596Z,4.77
2018-10-18T22:23:02.524Z,3.93
2018-10-18T22:25:29.480Z,4.03
2018-10-18T22:27:56.443Z,4.43
2018-10-18T22:30:23.381Z,4.50
2018-10-18T22:32:50.354Z,4.07
2018-10-18T22:35:17.361Z,4.17
2018-10-18T22:37:44.241Z,4.93
2018-10-18T22:40:11.169Z,5.33
2018-10-18T22:42:38.073Z,4.63
2018-10-18T22:45:05.920Z,4.80
2018-10-18T22:47:32.843Z,4.50
2018-10-18T22:49:59.774Z,4.30
2018-10-18T22:52:26.702Z,3.87
2018-10-18T22:54:53.618Z,4.37
2018-10-18T22:57:20.549Z,4.90
2018-10-18T22:59:47.531Z,4.87
2018-10-18T23:02:14.481Z,5.40
2018-10-18T23:04:41.400Z,4.87
2018-10-18T23:07:08.330Z,4.33
2018-10-18T23:09:35.276Z,4.47
2018-10-18T23:12:02.185Z,5.00
2018-10-18T23:14:29.130Z,4.93
2018-10-18T23:16:56.068Z,5.10
2018-10-18T23:19:22.974Z,5.37
2018-10-18T23:21:49.893Z,5.40
2018-10-18T23:24:17.325Z,5.80
2018-10-18T23:26:44.281Z,5.50
2018-10-18T23:29:11.270Z,5.43
2018-10-18T23:31:38.152Z,5.77
2018-10-18T23:34:05.189Z,5.80
2018-10-18T23:36:32.132Z,5.07
2018-10-18T23:38:59.102Z,5.30
2018-10-18T23:41:25.989Z,4.57
2018-10-18T23:43:52.931Z,5.10
2018-10-18T23:46:19.835Z,5.30
2018-10-18T23:48:46.745Z,5.40
2018-10-18T23:51:13.751Z,4.60
2018-10-18T23:53:40.674Z,4.70
2018-10-18T23:56:07.585Z,4.60
2018-10-18T23:58:34.506Z,4.93
